Aviation Digital Data Service (ADDS)

Output produced by METARs form (1120 UTC 31 July 2015)
found at http://aviationweather.gov/adds/metars/
 
KDCA 311120Z 3112/0112 32004KT P6SM FEW250 
     FM312300 26005KT P6SM SCT250